Terminal Aerodrome Forecast
Issued by NWS Raleigh/Durham, NC

Home | Current Version | Previous Version | Text Only | Print | Product List | Glossary On
Versions: 1 2 3 4 5 6 7 8 9 10 11 12 13 14 15 16 17 18 19 20 21 22 23 24 25 26 27 28 29 30 31 32 33 34 35
699
FTUS42 KRAH 201420 AAA
TAFGSO
TAF AMD
KGSO 201420Z 2014/2112 VRB05KT 3SM BR OVC012
      TEMPO 2014/2017 1 1/2SM -DZ BR OVC004
     FM210000 19002KT 5SM BR OVC010
     FM210700 20002KT 1/2SM FG OVC001=

USA.gov is the U.S. government's official web portal to all federal, state and local government web resources and services.